Latest Weather Observations for Condobolin Airport

IDN60801

Issued at 3:13 pm EDT Tuesday 18 January 2022 (issued every 10 minutes, with the page automatically refreshed every 10 minutes)

About weather observations | Map of weather stations | Latest weather observations for NSW | Other Formats
Station Details ID: 050137 Name: CONDOBOLIN AIRPORT AWS Lat: -33.07 Lon: 147.21 Height: 192.6 m
Data from the previous 72 hours. | See also: Recent months at Condobolin Airport
Date/Time
EDT
Temp
°C
App
Temp
°C
Dew
Point
°C
Rel
Hum
%
Delta-T
°C
Wind Press
QNH
hPa
Press
MSL
hPa
Rain since
9am
mm
Dir  Spd
km/h
Gust
km/h
Spd
kts
Gust
kts
18/03:00pm 26.8 28.6 21.1 71 3.8 ESE 13 20 7 11 1011.5 1010.4 0.2
18/02:30pm 26.2 28.3 21.0 73 3.5 ESE 11 15 6 8 1012.0 1010.9 0.2
18/02:00pm 25.2 27.1 20.5 75 3.1 SE 11 15 6 8 1012.5 1011.4 0.2
18/01:30pm 24.8 26.7 20.5 77 2.8 SSE 11 15 6 8 1012.7 1011.6 0.2
18/01:00pm 24.7 26.9 20.4 77 2.8 SSE 9 13 5 7 1012.9 1011.8 0.2
18/12:30pm 25.1 27.9 20.8 77 2.8 SSE 7 11 4 6 1012.9 1011.8 0.2
18/12:00pm 25.2 27.9 21.3 79 2.6 SE 9 13 5 7 1013.1 1012.0 0.2
18/11:30am 24.7 27.7 21.2 81 2.3 SSE 7 13 4 7 1013.4 1012.3 0.2
18/11:00am 24.0 27.1 21.1 84 1.9 ESE 6 9 3 5 1013.7 1012.6 0.2
18/10:30am 22.5 24.8 19.9 85 1.7 NE 7 11 4 6 1013.4 1012.3 0.2
18/10:00am 21.5 24.7 18.9 85 1.7 CALM 0 0 0 0 1013.6 1012.5 0.2
18/09:30am 21.3 23.2 18.9 86 1.5 E 7 11 4 6 1013.5 1012.4 0.2
18/09:00am 20.9 21.4 18.3 85 1.6 NE 13 19 7 10 1013.2 1012.1 14.0
18/08:30am 20.7 20.3 18.1 85 1.6 NNE 17 22 9 12 1013.0 1011.9 14.0
18/08:00am 20.7 21.8 17.9 84 1.7 NE 9 13 5 7 1012.7 1011.6 13.6
18/07:30am 20.6 20.9 17.8 84 1.7 NNE 13 20 7 11 1012.5 1011.4 13.6
18/07:00am 20.4 19.8 17.6 84 1.7 NE 17 20 9 11 1012.0 1010.9 13.6
18/06:30am 20.1 19.3 17.1 83 1.8 NE 17 22 9 12 1011.6 1010.5 13.6
18/06:00am 20.2 20.0 16.8 81 2.1 ENE 13 17 7 9 1011.8 1010.7 11.2
18/05:45am 20.5 21.2 17.1 81 2.1 SSW 9 17 5 9 1012.2 1011.1 8.4
18/05:35am 21.6 23.4 18.2 81 2.1 WNW 6 13 3 7 1012.1 1011.0 6.2
18/05:30am 21.8 23.5 18.4 81 2.1 NW 7 13 4 7 1012.2 1011.1 5.2
18/05:00am 22.1 23.8 18.5 80 2.3 SSW 7 9 4 5 1011.2 1010.1 2.4
18/04:30am 22.5 24.5 18.7 79 2.4 SW 6 9 3 5 1010.7 1009.5 0.0
18/04:00am 22.6 24.6 18.8 79 2.4 W 6 9 3 5 1010.7 1009.5 0.0
18/03:30am 22.8 25.9 18.6 77 2.7 CALM 0 0 0 0 1010.9 1009.7 0.0
18/03:00am 22.5 25.2 17.8 75 2.9 CALM 0 0 0 0 1011.0 1009.8 0.0
18/02:30am 22.8 25.6 17.9 74 3.1 CALM 0 0 0 0 1011.2 1010.1 0.0
18/02:00am 22.8 25.6 17.9 74 3.1 CALM 0 0 0 0 1011.5 1010.4 0.0
18/01:30am 23.2 26.0 17.9 72 3.3 CALM 0 6 0 3 1012.0 1010.9 0.0
18/01:00am 23.4 24.9 17.6 70 3.6 WNW 6 7 3 4 1012.2 1011.1 0.0
18/12:30am 23.8 25.3 17.5 68 3.9 WSW 6 7 3 4 1012.1 1011.0 0.0
18/12:00am 24.0 24.8 17.3 66 4.2 SSW 9 13 5 7 1012.3 1011.2 0.0
 
Date/Time
EDT
Temp
°C
App
Temp
°C
Dew
Point
°C
Rel
Hum
%
Delta-T
°C
Wind Press
QNH
hPa
Press
MSL
hPa
Rain since
9am
mm
Dir  Spd
km/h
Gust
km/h
Spd
kts
Gust
kts
17/11:30pm 24.1 25.3 17.4 66 4.2 S 7 13 4 7 1012.3 1011.2 0.0
17/11:00pm 24.1 25.2 17.1 65 4.4 SSE 7 9 4 5 1012.4 1011.3 0.0
17/10:30pm 24.1 25.1 16.9 64 4.5 SSW 7 9 4 5 1012.3 1011.2 0.0
17/10:00pm 24.7 25.7 16.9 62 4.9 S 7 9 4 5 1012.0 1010.9 0.0
17/09:30pm 25.0 25.8 16.4 59 5.3 SE 7 9 4 5 1011.6 1010.5 0.0
17/09:00pm 25.6 25.3 16.5 57 5.7 SE 13 17 7 9 1011.4 1010.3 0.0
17/08:30pm 26.2 25.5 16.4 54 6.1 SE 15 20 8 11 1011.2 1010.1 0.0
17/08:00pm 27.0 25.6 16.6 53 6.5 SE 19 30 10 16 1010.9 1009.7 0.0
17/07:30pm 27.9 27.7 16.8 50 7.0 SSE 13 17 7 9 1010.9 1009.7 0.0
17/07:00pm 28.1 27.6 17.0 51 7.0 SSE 15 20 8 11 1010.5 1009.3 0.0
17/06:30pm 28.6 28.1 16.8 48 7.4 SSE 15 20 8 11 1010.1 1008.9 0.0
17/06:00pm 28.8 28.6 16.7 48 7.6 SE 13 20 7 11 1009.9 1008.7 0.0
17/05:30pm 29.0 28.1 16.9 48 7.6 SSE 17 22 9 12 1009.8 1008.6 0.0
17/05:00pm 29.6 28.9 17.4 47 7.8 SSE 17 26 9 14 1009.5 1008.3 0.0
17/04:30pm 30.3 29.8 17.7 46 8.1 SE 17 22 9 12 1009.4 1008.2 0.0
17/04:00pm 31.4 31.9 18.4 46 8.5 SSE 13 20 7 11 1009.5 1008.3 0.0
17/03:30pm 31.6 31.5 17.9 44 8.9 SSE 15 20 8 11 1009.4 1008.2 0.0
17/03:00pm 31.8 32.6 19.1 47 8.4 SSW 13 19 7 10 1009.4 1008.2 0.0
17/02:30pm 31.7 33.4 19.3 47 8.2 SSE 9 17 5 9 1009.6 1008.4 0.0
17/02:00pm 31.8 33.9 20.1 50 7.8 S 9 15 5 8 1009.7 1008.5 0.0
17/01:30pm 31.5 33.3 21.1 54 7.0 SSW 13 19 7 10 1010.0 1008.8 0.0
17/01:00pm 31.2 33.4 21.1 55 6.8 SSE 11 17 6 9 1010.1 1008.9 0.0
17/12:30pm 30.5 32.2 21.0 57 6.4 S 13 17 7 9 1010.4 1009.2 0.0
17/12:00pm 30.3 33.0 21.4 59 6.0 SSW 9 15 5 8 1010.7 1009.5 0.0
17/11:30am 30.3 33.7 21.7 60 5.8 SSW 6 11 3 6 1010.7 1009.5 0.0
17/11:00am 29.5 32.5 21.2 61 5.6 SW 7 17 4 9 1010.8 1009.6 0.0
17/10:30am 29.2 32.5 21.4 63 5.3 WSW 6 11 3 6 1010.7 1009.5 0.0
17/10:00am 29.1 32.8 22.3 66 4.6 WNW 6 15 3 8 1010.5 1009.3 0.0
17/09:30am 27.6 29.9 21.4 69 4.2 N 11 15 6 8 1009.9 1008.7 0.0
17/09:00am 26.3 30.6 21.1 73 3.5 CALM 0 0 0 0 1009.9 1008.7 0.0
17/08:30am 25.1 27.7 20.4 75 3.1 NE 7 9 4 5 1009.7 1008.5 0.0
17/08:00am 24.4 25.9 19.7 75 3.1 NE 11 13 6 7 1009.1 1007.9 0.0
17/07:30am 23.9 25.0 19.6 77 2.8 NE 13 20 7 11 1008.4 1007.3 0.0
17/07:00am 22.3 23.6 18.5 79 2.4 ENE 9 13 5 7 1008.4 1007.3 0.0
17/06:30am 21.2 21.7 17.4 79 2.4 NE 11 15 6 8 1008.1 1007.0 0.0
17/06:00am 19.7 19.8 15.6 77 2.5 ENE 9 13 5 7 1007.7 1006.6 0.0
17/05:30am 18.7 18.2 14.8 78 2.3 ENE 11 11 6 6 1007.7 1006.6 0.0
17/05:00am 18.2 18.4 14.3 78 2.3 ENE 6 7 3 4 1007.5 1006.4 0.0
17/04:30am 18.6 18.9 14.5 77 2.4 ENE 6 7 3 4 1007.6 1006.5 0.0
17/04:00am 18.5 18.7 14.2 76 2.5 E 6 9 3 5 1007.3 1006.2 0.0
17/03:30am 18.8 19.5 14.5 76 2.5 E 4 6 2 3 1007.5 1006.4 0.0
17/03:00am 18.7 20.0 14.0 74 2.7 CALM 0 0 0 0 1007.8 1006.7 0.0
17/02:30am 18.7 19.9 13.8 73 2.8 CALM 0 0 0 0 1008.0 1006.9 0.0
17/02:00am 19.5 20.9 14.3 72 3.0 CALM 0 0 0 0 1008.4 1007.3 0.0
17/01:30am 19.8 20.9 14.6 72 3.1 E 2 6 1 3 1008.5 1007.4 0.0
17/01:00am 20.3 21.7 14.4 69 3.5 CALM 0 0 0 0 1009.1 1007.9 0.0
17/12:30am 20.2 21.3 13.6 66 3.8 CALM 0 0 0 0 1008.8 1007.6 0.0
17/12:00am 20.8 21.9 13.5 63 4.2 CALM 0 0 0 0 1009.0 1007.8 0.0
 
Date/Time
EDT
Temp
°C
App
Temp
°C
Dew
Point
°C
Rel
Hum
%
Delta-T
°C
Wind Press
QNH
hPa
Press
MSL
hPa
Rain since
9am
mm
Dir  Spd
km/h
Gust
km/h
Spd
kts
Gust
kts
16/11:30pm 21.3 22.4 13.5 61 4.5 CALM 0 0 0 0 1008.7 1007.5 0.0
16/11:00pm 21.7 22.7 13.3 59 4.9 CALM 0 0 0 0 1008.8 1007.6 0.0
16/10:30pm 22.3 23.0 13.4 57 5.2 NNE 2 13 1 7 1008.5 1007.4 0.0
16/10:00pm 22.9 23.9 13.1 54 5.7 CALM 0 0 0 0 1008.5 1007.4 0.0
16/09:30pm 24.9 26.1 13.8 50 6.6 CALM 0 0 0 0 1008.1 1007.0 0.0
16/09:00pm 26.0 27.0 13.2 45 7.6 CALM 0 0 0 0 1007.6 1006.5 0.0
16/08:30pm 27.9 29.1 13.8 42 8.5 CALM 0 0 0 0 1007.3 1006.2 0.0
16/08:00pm 28.5 29.3 13.6 40 9.0 ESE 2 6 1 3 1007.0 1005.9 0.0
16/07:30pm 29.5 30.0 12.9 36 9.9 E 2 9 1 5 1006.8 1005.7 0.0
16/07:00pm 31.1 30.0 12.0 31 11.3 E 9 13 5 7 1006.7 1005.6 0.0
16/06:30pm 31.3 30.3 12.2 31 11.3 ESE 9 13 5 7 1006.2 1005.0 0.0
16/06:00pm 32.2 30.9 12.4 30 11.9 SE 11 17 6 9 1006.4 1005.2 0.0
16/05:30pm 32.9 33.0 14.0 32 11.6 ESE 6 17 3 9 1006.3 1005.1 0.0
16/05:00pm 33.0 32.6 14.1 32 11.6 SE 9 19 5 10 1006.4 1005.2 0.0
16/04:30pm 33.0 32.5 15.0 33 11.2 SE 11 20 6 11 1006.8 1005.7 0.0
16/04:00pm 32.8 33.6 14.9 34 11.1 SSW 4 11 2 6 1006.9 1005.8 0.0
16/03:30pm 32.6 32.4 15.6 36 10.7 SSE 11 17 6 9 1007.2 1006.1 0.0
16/03:00pm 32.7 33.4 16.1 37 10.5 SSW 7 13 4 7 1007.3 1006.2 0.0
16/02:30pm 32.2 32.4 15.7 37 10.4 SE 9 19 5 10 1007.5 1006.4 0.0
16/02:00pm 32.2 32.7 16.5 39 10.0 S 9 15 5 8 1007.8 1006.7 0.0
16/01:30pm 31.5 32.6 16.6 40 9.4 SSE 6 15 3 8 1008.3 1007.2 0.0
16/01:00pm 31.2 31.9 17.1 42 9.0 SSE 9 15 5 8 1008.7 1007.5 0.0
16/12:30pm 30.2 31.2 16.9 44 8.4 S 7 15 4 8 1008.7 1007.5 0.0
16/12:00pm 30.4 31.8 17.8 46 8.1 S 7 15 4 8 1009.0 1007.8 0.0
16/11:30am 30.0 31.8 18.4 49 7.5 SE 6 13 3 7 1009.2 1008.0 0.0
16/11:00am 29.1 31.0 18.5 52 6.9 S 6 15 3 8 1009.2 1008.0 0.0
16/10:30am 28.1 30.6 19.1 58 5.9 S 4 9 2 5 1009.1 1007.9 0.0
16/10:00am 27.0 29.0 18.8 60 5.3 SSE 6 9 3 5 1009.1 1007.9 0.0
16/09:30am 26.3 29.1 18.9 63 4.8 S 2 7 1 4 1009.2 1008.0 0.0
16/09:00am 24.2 26.7 18.2 69 3.8 SSW 2 6 1 3 1009.1 1007.9 0.0
16/08:30am 23.3 26.1 18.0 72 3.3 CALM 0 0 0 0 1008.7 1007.5 0.0
16/08:00am 21.9 23.4 17.5 76 2.7 ENE 6 7 3 4 1008.3 1007.2 0.0
16/07:30am 20.0 20.7 16.2 79 2.3 ENE 7 9 4 5 1008.0 1006.9 0.0
16/07:00am 17.3 17.2 13.8 80 2.0 WNW 7 9 4 5 1007.7 1006.6 0.0
16/06:30am 15.6 15.1 12.2 80 1.9 WNW 6 7 3 4 1007.2 1006.1 0.0
16/06:00am 15.8 16.5 12.2 79 2.0 CALM 0 0 0 0 1006.8 1005.7 0.0
16/05:30am 15.4 15.5 11.4 77 2.2 NE 2 7 1 4 1006.4 1005.2 0.0
16/05:00am 16.3 15.6 12.1 76 2.3 NE 7 11 4 6 1006.1 1004.9 0.0
16/04:30am 17.6 17.2 13.1 75 2.5 WNW 7 9 4 5 1005.7 1004.5 0.0
16/04:00am 17.7 17.0 13.2 75 2.6 WNW 9 9 5 5 1005.8 1004.6 0.0
16/03:30am 17.5 16.7 13.0 75 2.5 NW 9 11 5 6 1006.2 1005.0 0.0
16/03:00am 17.4 18.2 12.7 74 2.6 CALM 0 0 0 0 1006.1 1004.9 0.0
16/02:30am 16.5 17.0 11.6 73 2.7 CALM 0 0 0 0 1006.1 1004.9 0.0
16/02:00am 17.0 17.6 11.9 72 2.8 CALM 0 0 0 0 1006.2 1005.0 0.0
16/01:30am 17.7 17.7 12.4 71 3.0 ENE 4 6 2 3 1006.5 1005.4 0.0
16/01:00am 18.1 17.6 11.9 67 3.5 NW 6 7 3 4 1006.5 1005.4 0.0
16/12:30am 18.6 17.5 12.1 66 3.6 NW 9 9 5 5 1006.6 1005.5 0.0
16/12:00am 19.1 19.8 12.1 64 3.9 CALM 0 0 0 0 1006.5 1005.4 0.0
 
Date/Time
EDT
Temp
°C
App
Temp
°C
Dew
Point
°C
Rel
Hum
%
Delta-T
°C
Wind Press
QNH
hPa
Press
MSL
hPa
Rain since
9am
mm
Dir  Spd
km/h
Gust
km/h
Spd
kts
Gust
kts
15/11:30pm 19.2 19.7 11.5 61 4.3 CALM 0 0 0 0 1006.7 1005.6 0.0
15/11:00pm 21.5 22.4 12.9 58 5.0 CALM 0 0 0 0 1006.6 1005.5 0.0
15/10:30pm 21.7 21.0 12.0 54 5.5 SW 7 11 4 6 1006.3 1005.1 0.0
15/10:00pm 22.3 20.5 12.0 52 5.9 SW 13 15 7 8 1005.6 1004.4 0.0
15/09:30pm 23.1 21.6 11.8 49 6.4 SSW 11 13 6 7 1005.2 1004.0 0.0
15/09:00pm 23.5 21.7 10.9 45 7.1 SSW 11 13 6 7 1005.4 1004.2 0.0
15/08:30pm 24.5 22.2 10.4 41 7.9 SW 13 15 7 8 1005.1 1003.9 0.0
15/08:00pm 27.1 24.8 10.3 35 9.5 SSW 13 15 7 8 1004.8 1003.6 0.0
15/07:51pm 28.0 26.2 10.7 34 9.9 SSW 11 13 6 7 1004.4 1003.2 0.0
15/07:30pm 29.3 26.2 10.4 31 10.8 SW 17 22 9 12 1002.3 1001.2 0.0
15/07:12pm 30.3 27.3 10.8 30 11.3 SW 17 24 9 13 1002.9 1001.8 0.0
15/07:00pm 30.9 27.4 10.3 28 11.9 SW 19 24 10 13 1005.0 1003.8 0.0
15/06:53pm 31.1 27.5 10.4 28 11.9 SW 20 30 11 16 1005.6 1004.4 0.0
15/06:30pm 31.4 27.4 11.7 29 11.6 SW 24 32 13 17 1003.5 1002.3 0.0
15/06:00pm 31.6 28.0 12.9 32 11.3 SW 24 30 13 16 1003.3 1002.1 0.0
15/05:30pm 31.9 28.7 13.2 32 11.3 WSW 22 32 12 17 1003.3 1002.1 0.0
15/05:00pm 32.4 30.0 14.5 33 11.1 SW 20 28 11 15 1003.6 1002.4 0.0
15/04:30pm 32.0 28.0 14.2 34 10.9 SW 28 39 15 21 1003.7 1002.5 0.0
15/04:00pm 32.7 29.5 15.2 34 11.0 SW 26 35 14 19 1003.9 1002.7 0.0
15/03:30pm 32.8 29.4 15.8 36 10.7 WSW 28 39 15 21 1003.9 1002.7 0.0

Other formats

Comma delimited format used in spreadsheet applications
http://www.bom.gov.au/fwo/IDN60801/IDN60801.95708.axf

JavaScript Object Notation format (JSON) in row-major order
http://www.bom.gov.au/fwo/IDN60801/IDN60801.95708.json

Data quality

Most of these data are generated automatically and are frequently updated. Quality checks on data are not normally performed. It is possible for incorrect values to appear. Refer to information at About Latest Weather Observations and please check the disclaimer before using these data.